MSC Marta — 3ECV4 — position and weather

sailwx.info

Track history (hours):
 
Tides and Currents Weather Stations Pressure Air Temp Water Temp Dewpoint Dewpoint Depression Visibility Wind Speed Wind Dir Waves Ship Positions

MSC Marta

Last reported at 2018-Apr-14 12:44 UTC. Time now 2018-Apr-20 04:50 UTC.
Position N 14°11' W 060°46'.

Length 275 m; draft 9.7 m.

Type: Cargo ship. MMSI: 371474000.

Date/timePositionNaut miles runAvg speedWind from/ knotsBaromVisibWave heightAir tempDewpointWater temp
2018-Apr-14 12:44N 14°11' W 060°46'418.4
2018-Apr-14 12:30N 14°13' W 060°51'816.8
2018-Apr-14 12:01N 14°17' W 060°58'816.6
2018-Apr-14 11:31N 14°20' W 061°06'816.4
2018-Apr-14 11:00N 14°24' W 061°14'1416.7
2018-Apr-14 10:11N 14°29' W 061°27'316.4
2018-Apr-14 10:00N 14°31' W 061°29'  
2018-Apr-10 09:19N 25°41' W 076°43'617.0
2018-Apr-10 08:59N 25°42' W 076°49'817.3
2018-Apr-10 08:30N 25°44' W 076°58'917.6
2018-Apr-10 08:00N 25°45' W 077°07'917.3
2018-Apr-10 07:30N 25°47' W 077°17'917.5
2018-Apr-10 07:00N 25°49' W 077°26'918.3
2018-Apr-10 06:30N 25°51' W 077°36'918.4
2018-Apr-10 06:00N 25°54' W 077°46'1019.1
2018-Apr-10 05:30N 25°57' W 077°56'918.6
2018-Apr-10 05:00N 25°59' W 078°06'918.3
2018-Apr-10 04:30N 26°01' W 078°16'917.9
2018-Apr-10 04:00N 26°04' W 078°25'1018.2
2018-Apr-10 03:26N 26°06' W 078°36'818.4
2018-Apr-10 03:00N 26°08' W 078°45'918.5
2018-Apr-10 02:30N 26°11' W 078°55'2017.6
2018-Apr-10 01:22N 26°11' W 079°17'617.1
2018-Apr-10 01:00N 26°10' W 079°24'817.1
2018-Apr-10 00:30N 26°09' W 079°33'918.9
2018-Apr-10 00:00N 26°08' W 079°44'918.4
2018-Apr-09 23:30N 26°08' W 079°54'917.7
2018-Apr-09 23:00N 26°06' W 080°04'3 5.9
2018-Apr-09 22:30N 26°05' W 080°07'1 2.0
2018-Apr-09 21:58N 26°04' W 080°07'0 0.0
2018-Apr-09 21:28N 26°04' W 080°07'0 0.0
2018-Apr-09 20:58N 26°04' W 080°07'0 0.0
2018-Apr-09 20:28N 26°04' W 080°07'0 0.0
2018-Apr-09 19:58N 26°04' W 080°07'0 0.0
2018-Apr-09 19:28N 26°04' W 080°07'0 0.0
2018-Apr-09 18:58N 26°04' W 080°07'0 0.0
2018-Apr-09 18:25N 26°04' W 080°07'0 0.0
2018-Apr-09 17:58N 26°04' W 080°07'0 0.0
2018-Apr-09 17:28N 26°04' W 080°07'0 0.0
2018-Apr-09 16:58N 26°04' W 080°07'0 0.0
2018-Apr-09 16:28N 26°04' W 080°07'0 0.0
2018-Apr-09 15:58N 26°04' W 080°07'0 0.0
2018-Apr-09 15:28N 26°04' W 080°07'0 0.0
2018-Apr-09 14:58N 26°04' W 080°07'0 0.0
2018-Apr-09 14:28N 26°04' W 080°07'0 0.0
2018-Apr-09 13:58N 26°04' W 080°07'0 0.0
2018-Apr-09 13:28N 26°04' W 080°07'0 0.0
2018-Apr-09 12:58N 26°04' W 080°07'0 0.0
2018-Apr-09 12:28N 26°04' W 080°07'0 0.0
2018-Apr-09 11:58N 26°04' W 080°07'0 0.0
2018-Apr-09 11:28N 26°04' W 080°07'0 0.0
2018-Apr-09 10:58N 26°04' W 080°07'0 0.0
2018-Apr-09 10:28N 26°04' W 080°07'0 0.0
2018-Apr-09 09:58N 26°04' W 080°07'0 0.0
2018-Apr-09 09:25N 26°04' W 080°07'0 0.0
2018-Apr-09 08:58N 26°04' W 080°07'0 0.0
2018-Apr-09 08:28N 26°04' W 080°07'0 0.0
2018-Apr-09 07:58N 26°04' W 080°07'0 0.0
2018-Apr-09 07:28N 26°04' W 080°07'0 0.0
2018-Apr-09 07:01N 26°04' W 080°07'1 2.5
2018-Apr-09 06:30N 26°05' W 080°07'4 8.3
2018-Apr-09 06:00N 26°05' W 080°02'4 8.2
2018-Apr-09 05:30N 26°06' W 079°58'5 9.1
2018-Apr-09 05:00N 26°08' W 079°54'3 5.3
2018-Apr-09 04:30N 26°10' W 079°52'2 3.8
2018-Apr-09 04:00N 26°08' W 079°52'2 3.9
2018-Apr-09 03:29N 26°06' W 079°53'2 4.1
2018-Apr-09 02:59N 26°04' W 079°53'2 4.2
2018-Apr-09 02:30N 26°02' W 079°54'2 4.4
2018-Apr-09 02:00N 26°00' W 079°54'2 4.5
2018-Apr-09 01:30N 25°58' W 079°55'2 3.5
2018-Apr-09 01:00N 25°56' W 079°55'0 0.8
2018-Apr-09 00:30N 25°57' W 079°55'611.3
2018-Apr-09 00:00N 26°02' W 079°54'612.6
2018-Apr-08 23:30N 26°08' W 079°53'712.5
2018-Apr-08 22:59N 26°15' W 079°52'1 2.9
2018-Apr-08 22:30N 26°14' W 079°53'2 3.8
2018-Apr-08 22:00N 26°12' W 079°53'2 4.6
2018-Apr-08 21:30N 26°09' W 079°53'2 4.6
2018-Apr-08 21:00N 26°07' W 079°53'2 3.7
2018-Apr-08 20:31N 26°05' W 079°54'1 1.5
2018-Apr-08 20:00N 26°06' W 079°54'612.1
2018-Apr-08 19:30N 26°12' W 079°51'612.7
2018-Apr-08 19:00N 26°18' W 079°50'713.4
2018-Apr-08 18:30N 26°25' W 079°50'713.6
2018-Apr-08 18:00N 26°32' W 079°50'1713.5
2018-Apr-08 16:43N 26°49' W 079°51'313.8
2018-Apr-08 16:30N 26°52' W 079°50'713.8
2018-Apr-08 16:00N 26°59' W 079°50'29014.2
2018-Apr-07 19:34N 31°47' W 080°24'114.9
2018-Apr-07 19:29N 31°48' W 080°25'1011.9
2018-Apr-07 18:37N 31°55' W 080°35'1 9.9
2018-Apr-07 18:30N 31°55' W 080°36'5 9.9
2018-Apr-07 18:00N 31°57' W 080°41'612.0
2018-Apr-07 17:30N 31°60' W 080°47'612.8
2018-Apr-07 17:00N 32°02' W 080°54'510.4
2018-Apr-07 16:30N 32°05' W 080°59'4 7.0
2018-Apr-07 16:00N 32°05' W 081°04'2 4.9
2018-Apr-07 15:30N 32°06' W 081°06'2 4.3
2018-Apr-07 15:00N 32°07' W 081°08'1 1.6
2018-Apr-07 14:29N 32°08' W 081°08'0 0.0
2018-Apr-07 13:59N 32°08' W 081°08'0 0.0
2018-Apr-07 13:29N 32°08' W 081°08'0 0.0
2018-Apr-07 12:59N 32°08' W 081°08'0 0.0
2018-Apr-07 12:29N 32°08' W 081°08'0 0.0
2018-Apr-07 11:59N 32°08' W 081°08'0 0.0
2018-Apr-07 11:29N 32°08' W 081°08'0 0.0
2018-Apr-07 10:59N 32°08' W 081°08'0 0.0
2018-Apr-07 10:29N 32°08' W 081°08'0 0.0
2018-Apr-07 09:47N 32°08' W 081°08'0 0.0
2018-Apr-07 09:29N 32°08' W 081°08'0 0.0
2018-Apr-07 08:59N 32°08' W 081°08'0 0.0
2018-Apr-07 08:29N 32°08' W 081°08'0 0.0
2018-Apr-07 07:59N 32°08' W 081°08'0 0.0
2018-Apr-07 07:29N 32°08' W 081°08'0 0.0
2018-Apr-07 06:59N 32°08' W 081°08'0 0.0
2018-Apr-07 06:29N 32°08' W 081°08'0 0.0
2018-Apr-07 05:59N 32°08' W 081°08'0 0.0
2018-Apr-07 05:29N 32°08' W 081°08'0 0.0
2018-Apr-07 04:59N 32°08' W 081°08'0 0.0
2018-Apr-07 04:29N 32°08' W 081°08'0 0.0
2018-Apr-07 03:59N 32°08' W 081°08'0 0.0
2018-Apr-07 03:23N 32°08' W 081°08'0 0.0
2018-Apr-07 02:59N 32°08' W 081°08'0 0.0
2018-Apr-07 02:29N 32°08' W 081°08'0 0.0
2018-Apr-07 01:59N 32°08' W 081°08'0 0.0
2018-Apr-07 01:29N 32°08' W 081°08'0 0.0
2018-Apr-07 00:59N 32°08' W 081°08'0 0.0
2018-Apr-07 00:29N 32°08' W 081°08'0 0.0
2018-Apr-06 23:59N 32°08' W 081°08'0 0.0
2018-Apr-06 23:29N 32°08' W 081°08'0 0.0
2018-Apr-06 22:59N 32°08' W 081°08'0 0.0
2018-Apr-06 22:29N 32°08' W 081°08'0 0.0
2018-Apr-06 21:59N 32°08' W 081°08'0 0.0
2018-Apr-06 21:29N 32°08' W 081°08'0 0.0
2018-Apr-06 20:59N 32°08' W 081°08'0 0.0
2018-Apr-06 20:29N 32°08' W 081°08'0 0.0
2018-Apr-06 19:53N 32°08' W 081°08'0 0.0
2018-Apr-06 19:30N 32°08' W 081°08'0 0.2
2018-Apr-06 19:00N 32°08' W 081°08'1 2.6
2018-Apr-06 18:30N 32°07' W 081°08'3 5.2
2018-Apr-06 18:00N 32°05' W 081°06'3 5.8
2018-Apr-06 17:30N 32°05' W 081°02'4 8.2
2018-Apr-06 17:00N 32°04' W 080°57'510.4
2018-Apr-06 16:30N 32°02' W 080°52'714.6
2018-Apr-06 16:00N 31°58' W 080°44'612.2
2018-Apr-06 15:30N 31°56' W 080°38'3 6.8
2018-Apr-06 15:00N 31°56' W 080°34'3 5.1
2018-Apr-06 14:30N 31°56' W 080°31'4 8.6
2018-Apr-06 14:00N 31°56' W 080°26'6 9.0
2018-Apr-06 13:24N 31°57' W 080°19'369 7.8
2018-Apr-04 14:04N 36°49' W 075°46'1 9.9
2018-Apr-04 14:00N 36°49' W 075°47'5 9.9
2018-Apr-04 13:30N 36°52' W 075°52'5 9.5
2018-Apr-04 13:00N 36°55' W 075°56'  
Track history (hours):
 
Tides and Currents Weather Stations Pressure Air Temp Water Temp Dewpoint Dewpoint Depression Visibility Wind Speed Wind Dir Waves Ship Positions

MSC Marta

Last reported at 2018-Apr-14 12:44 UTC. Time now 2018-Apr-20 04:50 UTC.
Position N 14°11' W 060°46'.

Length 275 m; draft 9.7 m.

Type: Cargo ship. MMSI: 371474000.

Date/timePositionNaut miles runAvg speedWind from/ knotsBaromVisibWave heightAir tempDewpointWater temp
2018-Apr-14 12:44N 14°11' W 060°46'418.4
2018-Apr-14 12:30N 14°13' W 060°51'816.8
2018-Apr-14 12:01N 14°17' W 060°58'816.6
2018-Apr-14 11:31N 14°20' W 061°06'816.4
2018-Apr-14 11:00N 14°24' W 061°14'1416.7
2018-Apr-14 10:11N 14°29' W 061°27'316.4
2018-Apr-14 10:00N 14°31' W 061°29'  
2018-Apr-10 09:19N 25°41' W 076°43'617.0
2018-Apr-10 08:59N 25°42' W 076°49'817.3
2018-Apr-10 08:30N 25°44' W 076°58'917.6
2018-Apr-10 08:00N 25°45' W 077°07'917.3
2018-Apr-10 07:30N 25°47' W 077°17'917.5
2018-Apr-10 07:00N 25°49' W 077°26'918.3
2018-Apr-10 06:30N 25°51' W 077°36'918.4
2018-Apr-10 06:00N 25°54' W 077°46'1019.1
2018-Apr-10 05:30N 25°57' W 077°56'918.6
2018-Apr-10 05:00N 25°59' W 078°06'918.3
2018-Apr-10 04:30N 26°01' W 078°16'917.9
2018-Apr-10 04:00N 26°04' W 078°25'1018.2
2018-Apr-10 03:26N 26°06' W 078°36'818.4
2018-Apr-10 03:00N 26°08' W 078°45'918.5
2018-Apr-10 02:30N 26°11' W 078°55'2017.6
2018-Apr-10 01:22N 26°11' W 079°17'617.1
2018-Apr-10 01:00N 26°10' W 079°24'817.1
2018-Apr-10 00:30N 26°09' W 079°33'918.9
2018-Apr-10 00:00N 26°08' W 079°44'918.4
2018-Apr-09 23:30N 26°08' W 079°54'917.7
2018-Apr-09 23:00N 26°06' W 080°04'3 5.9
2018-Apr-09 22:30N 26°05' W 080°07'1 2.0
2018-Apr-09 21:58N 26°04' W 080°07'0 0.0
2018-Apr-09 21:28N 26°04' W 080°07'0 0.0
2018-Apr-09 20:58N 26°04' W 080°07'0 0.0
2018-Apr-09 20:28N 26°04' W 080°07'0 0.0
2018-Apr-09 19:58N 26°04' W 080°07'0 0.0
2018-Apr-09 19:28N 26°04' W 080°07'0 0.0
2018-Apr-09 18:58N 26°04' W 080°07'0 0.0
2018-Apr-09 18:25N 26°04' W 080°07'0 0.0
2018-Apr-09 17:58N 26°04' W 080°07'0 0.0
2018-Apr-09 17:28N 26°04' W 080°07'0 0.0
2018-Apr-09 16:58N 26°04' W 080°07'0 0.0
2018-Apr-09 16:28N 26°04' W 080°07'0 0.0
2018-Apr-09 15:58N 26°04' W 080°07'0 0.0
2018-Apr-09 15:28N 26°04' W 080°07'0 0.0
2018-Apr-09 14:58N 26°04' W 080°07'0 0.0
2018-Apr-09 14:28N 26°04' W 080°07'0 0.0
2018-Apr-09 13:58N 26°04' W 080°07'0 0.0
2018-Apr-09 13:28N 26°04' W 080°07'0 0.0
2018-Apr-09 12:58N 26°04' W 080°07'0 0.0
2018-Apr-09 12:28N 26°04' W 080°07'0 0.0
2018-Apr-09 11:58N 26°04' W 080°07'0 0.0
2018-Apr-09 11:28N 26°04' W 080°07'0 0.0
2018-Apr-09 10:58N 26°04' W 080°07'0 0.0
2018-Apr-09 10:28N 26°04' W 080°07'0 0.0
2018-Apr-09 09:58N 26°04' W 080°07'0 0.0
2018-Apr-09 09:25N 26°04' W 080°07'0 0.0
2018-Apr-09 08:58N 26°04' W 080°07'0 0.0
2018-Apr-09 08:28N 26°04' W 080°07'0 0.0
2018-Apr-09 07:58N 26°04' W 080°07'0 0.0
2018-Apr-09 07:28N 26°04' W 080°07'0 0.0
2018-Apr-09 07:01N 26°04' W 080°07'1 2.5
2018-Apr-09 06:30N 26°05' W 080°07'4 8.3
2018-Apr-09 06:00N 26°05' W 080°02'4 8.2
2018-Apr-09 05:30N 26°06' W 079°58'5 9.1
2018-Apr-09 05:00N 26°08' W 079°54'3 5.3
2018-Apr-09 04:30N 26°10' W 079°52'2 3.8
2018-Apr-09 04:00N 26°08' W 079°52'2 3.9
2018-Apr-09 03:29N 26°06' W 079°53'2 4.1
2018-Apr-09 02:59N 26°04' W 079°53'2 4.2
2018-Apr-09 02:30N 26°02' W 079°54'2 4.4
2018-Apr-09 02:00N 26°00' W 079°54'2 4.5
2018-Apr-09 01:30N 25°58' W 079°55'2 3.5
2018-Apr-09 01:00N 25°56' W 079°55'0 0.8
2018-Apr-09 00:30N 25°57' W 079°55'611.3
2018-Apr-09 00:00N 26°02' W 079°54'612.6
2018-Apr-08 23:30N 26°08' W 079°53'712.5
2018-Apr-08 22:59N 26°15' W 079°52'1 2.9
2018-Apr-08 22:30N 26°14' W 079°53'2 3.8
2018-Apr-08 22:00N 26°12' W 079°53'2 4.6
2018-Apr-08 21:30N 26°09' W 079°53'2 4.6
2018-Apr-08 21:00N 26°07' W 079°53'2 3.7
2018-Apr-08 20:31N 26°05' W 079°54'1 1.5
2018-Apr-08 20:00N 26°06' W 079°54'612.1
2018-Apr-08 19:30N 26°12' W 079°51'612.7
2018-Apr-08 19:00N 26°18' W 079°50'713.4
2018-Apr-08 18:30N 26°25' W 079°50'713.6
2018-Apr-08 18:00N 26°32' W 079°50'1713.5
2018-Apr-08 16:43N 26°49' W 079°51'313.8
2018-Apr-08 16:30N 26°52' W 079°50'713.8
2018-Apr-08 16:00N 26°59' W 079°50'29014.2
2018-Apr-07 19:34N 31°47' W 080°24'114.9
2018-Apr-07 19:29N 31°48' W 080°25'1011.9
2018-Apr-07 18:37N 31°55' W 080°35'1 9.9
2018-Apr-07 18:30N 31°55' W 080°36'5 9.9
2018-Apr-07 18:00N 31°57' W 080°41'612.0
2018-Apr-07 17:30N 31°60' W 080°47'612.8
2018-Apr-07 17:00N 32°02' W 080°54'510.4
2018-Apr-07 16:30N 32°05' W 080°59'4 7.0
2018-Apr-07 16:00N 32°05' W 081°04'2 4.9
2018-Apr-07 15:30N 32°06' W 081°06'2 4.3
2018-Apr-07 15:00N 32°07' W 081°08'1 1.6
2018-Apr-07 14:29N 32°08' W 081°08'0 0.0
2018-Apr-07 13:59N 32°08' W 081°08'0 0.0
2018-Apr-07 13:29N 32°08' W 081°08'0 0.0
2018-Apr-07 12:59N 32°08' W 081°08'0 0.0
2018-Apr-07 12:29N 32°08' W 081°08'0 0.0
2018-Apr-07 11:59N 32°08' W 081°08'0 0.0
2018-Apr-07 11:29N 32°08' W 081°08'0 0.0
2018-Apr-07 10:59N 32°08' W 081°08'0 0.0
2018-Apr-07 10:29N 32°08' W 081°08'0 0.0
2018-Apr-07 09:47N 32°08' W 081°08'0 0.0
2018-Apr-07 09:29N 32°08' W 081°08'0 0.0
2018-Apr-07 08:59N 32°08' W 081°08'0 0.0
2018-Apr-07 08:29N 32°08' W 081°08'0 0.0
2018-Apr-07 07:59N 32°08' W 081°08'0 0.0
2018-Apr-07 07:29N 32°08' W 081°08'0 0.0
2018-Apr-07 06:59N 32°08' W 081°08'0 0.0
2018-Apr-07 06:29N 32°08' W 081°08'0 0.0
2018-Apr-07 05:59N 32°08' W 081°08'0 0.0
2018-Apr-07 05:29N 32°08' W 081°08'0 0.0
2018-Apr-07 04:59N 32°08' W 081°08'0 0.0
2018-Apr-07 04:29N 32°08' W 081°08'0 0.0
2018-Apr-07 03:59N 32°08' W 081°08'0 0.0
2018-Apr-07 03:23N 32°08' W 081°08'0 0.0
2018-Apr-07 02:59N 32°08' W 081°08'0 0.0
2018-Apr-07 02:29N 32°08' W 081°08'0 0.0
2018-Apr-07 01:59N 32°08' W 081°08'0 0.0
2018-Apr-07 01:29N 32°08' W 081°08'0 0.0
2018-Apr-07 00:59N 32°08' W 081°08'0 0.0
2018-Apr-07 00:29N 32°08' W 081°08'0 0.0
2018-Apr-06 23:59N 32°08' W 081°08'0 0.0
2018-Apr-06 23:29N 32°08' W 081°08'0 0.0
2018-Apr-06 22:59N 32°08' W 081°08'0 0.0
2018-Apr-06 22:29N 32°08' W 081°08'0 0.0
2018-Apr-06 21:59N 32°08' W 081°08'0 0.0
2018-Apr-06 21:29N 32°08' W 081°08'0 0.0
2018-Apr-06 20:59N 32°08' W 081°08'0 0.0
2018-Apr-06 20:29N 32°08' W 081°08'0 0.0
2018-Apr-06 19:53N 32°08' W 081°08'0 0.0
2018-Apr-06 19:30N 32°08' W 081°08'0 0.2
2018-Apr-06 19:00N 32°08' W 081°08'1 2.6
2018-Apr-06 18:30N 32°07' W 081°08'3 5.2
2018-Apr-06 18:00N 32°05' W 081°06'3 5.8
2018-Apr-06 17:30N 32°05' W 081°02'4 8.2
2018-Apr-06 17:00N 32°04' W 080°57'510.4
2018-Apr-06 16:30N 32°02' W 080°52'714.6
2018-Apr-06 16:00N 31°58' W 080°44'612.2
2018-Apr-06 15:30N 31°56' W 080°38'3 6.8
2018-Apr-06 15:00N 31°56' W 080°34'3 5.1
2018-Apr-06 14:30N 31°56' W 080°31'4 8.6
2018-Apr-06 14:00N 31°56' W 080°26'6 9.0
2018-Apr-06 13:24N 31°57' W 080°19'369 7.8
2018-Apr-04 14:04N 36°49' W 075°46'1 9.9
2018-Apr-04 14:00N 36°49' W 075°47'5 9.9
2018-Apr-04 13:30N 36°52' W 075°52'5 9.5
2018-Apr-04 13:00N 36°55' W 075°56'  

Dump ship's entire track history